aviador You're here:

SCCC Decoded Metar

CHILE CHICO in CHILE
Report Time2017-08-22 16:00:00
UTC Time2017-08-22 16:44:32
Flight Rules vfr VFR
Wind290° at 18 kt
W.Decomp.*RWY 30: 16.8 kt HW 6.5 kt LCW
W.Rank290° ranks 1
Current wind is above 290° avg. (17.1)
Visibility9999 m
Phenomena:N/A
Clouds:Scattered 036 Hf
Expected CloudBase > 4,800 ft AGL from Temp-Dew spread
CeilingNone
Temp07°C (ISA -6)
Dew Point-5°C (42% RH)
AAT-2.1°C
QNH0981 hPa
Density Alt1,522 ft
Elevation1,066 ft
Report Wrong Elevation
Raw Report
SCCC 221600Z 29018KT 9999 SCT036 07/M05 Q0981=

Extra information for SCCC:More info

Airport Information Weather charts Add Link Nearby Venues Social comments